Aérodrome :
LOGIN :

S'inscrire | Disclaimer

   EN    FR    IT 

 










Légende :    VFR   VFR Marginal   IFR   IFR Intensif   IFR Très Intensif
Visi : 
Plafond : 
>= 8 km
>= 3000ft
5 à 8 km
1000 à 3000 ft
1500m à 5 km
500 à 1000 ft
800 à 1500m
200 à 500 ft
< 800m
< 200 ft
Symboles :   Orages  Brouillard  Fortes neiges  Fortes précipitations  Vent > 20 kt
SIGMETs :   Divers  Orages  Givrage  Turbulence  Onde Orograph.  Cendres Volcan.






- Altitude de l'aérodrome : 255 ft


ENGC - Gullfaks C oil platform

DERNIER METAR :
  • 012050Z 29034KT 9999 VCSH SCT020 BKN045 06/M01 Q1000 W06/S5

METARs EXPIRÉS :
  • 012020Z 30029KT 9999 -SHRA SCT018 BKN030 05/02 Q1000 W06/S5
  • 011950Z 29024KT 9999 -SHRA SCT018 BKN050 05/02 Q1000 W06/S5
  • 011920Z 28019KT 9999 VCSH SCT020 BKN050 05/02 Q1001 W05/S5
  • 011850Z 29019KT 9999 VCSH SCT018 SCT050 05/02 Q1001 W05/S5
  • 011820Z 30016KT 9999 VCSH SCT020TCU BKN030 05/02 Q1001 W05/S5

TAF TAF ENGC
Valide du 01 à 21h jusqu'au 02 à 21h UTC


0121/0221 29028KT 9999 -SHRA FEW015TCU BKN030
BECMG 0121/0123 27040KT
BECMG 0200/0202 27050KT
TEMPO 0200/0212 28055G70KT
TEMPO 0200/0221 4000 SHRAGS BKN012CB
BECMG 0210/0212 33050KT
BECMG 0217/0219 33040KT



MET'MAP, la Météo Aéronautique d'un coup d'oeil ! - Copyright ORBIFLY Décembre 2007 - Disclaimer

ORBIFLY MET'MAP TEAM :

Programmation & Développement : Alexandra Zaïnal
Sur une idée originale de : Baudouin d'Aumeries
Assistance à la programmation : Marc-Olivier Méhu
Soutien technique & logistique : Manuel Goepfert

Contact : metmap@orbifly.com




SOURCES & CREDITS :

   NOAA